sensor_id;sensor_type;location;lat;lon;timestamp;temperature;humidity
78902;DHT22;70441;44.758;37.686;2023-09-19T00:00:57;18.99;47.05
78902;DHT22;70441;44.758;37.686;2023-09-19T00:01:59;19.00;47.12
78902;DHT22;70441;44.758;37.686;2023-09-19T00:03:00;18.99;47.20
78902;DHT22;70441;44.758;37.686;2023-09-19T00:04:02;18.98;47.18
78902;DHT22;70441;44.758;37.686;2023-09-19T00:05:04;18.98;47.03
78902;DHT22;70441;44.758;37.686;2023-09-19T00:06:05;19.00;47.08
78902;DHT22;70441;44.758;37.686;2023-09-19T00:07:09;19.00;47.04
78902;DHT22;70441;44.758;37.686;2023-09-19T00:08:10;18.98;46.95
78902;DHT22;70441;44.758;37.686;2023-09-19T00:09:12;18.98;46.98
78902;DHT22;70441;44.758;37.686;2023-09-19T00:10:13;18.98;47.02
78902;DHT22;70441;44.758;37.686;2023-09-19T00:11:16;18.96;46.85
78902;DHT22;70441;44.758;37.686;2023-09-19T00:12:17;18.99;46.92
78902;DHT22;70441;44.758;37.686;2023-09-19T00:13:19;19.00;46.88
78902;DHT22;70441;44.758;37.686;2023-09-19T00:14:20;19.00;46.84
78902;DHT22;70441;44.758;37.686;2023-09-19T00:15:26;19.02;46.94
78902;DHT22;70441;44.758;37.686;2023-09-19T00:16:31;19.03;47.02
78902;DHT22;70441;44.758;37.686;2023-09-19T00:17:33;18.99;47.13
78902;DHT22;70441;44.758;37.686;2023-09-19T00:18:35;18.96;47.08
78902;DHT22;70441;44.758;37.686;2023-09-19T00:19:37;18.96;47.17
78902;DHT22;70441;44.758;37.686;2023-09-19T00:20:38;18.93;47.38
78902;DHT22;70441;44.758;37.686;2023-09-19T00:21:40;18.98;47.21
78902;DHT22;70441;44.758;37.686;2023-09-19T00:22:43;18.99;47.00
78902;DHT22;70441;44.758;37.686;2023-09-19T00:23:44;18.98;47.14
78902;DHT22;70441;44.758;37.686;2023-09-19T00:24:46;18.96;47.10
78902;DHT22;70441;44.758;37.686;2023-09-19T00:25:47;18.98;47.06
78902;DHT22;70441;44.758;37.686;2023-09-19T00:26:49;19.02;46.95
78902;DHT22;70441;44.758;37.686;2023-09-19T00:27:51;19.00;46.92
78902;DHT22;70441;44.758;37.686;2023-09-19T00:28:52;19.03;46.92
78902;DHT22;70441;44.758;37.686;2023-09-19T00:29:54;19.02;46.94
78902;DHT22;70441;44.758;37.686;2023-09-19T00:30:56;19.00;46.94
78902;DHT22;70441;44.758;37.686;2023-09-19T00:31:58;19.02;46.83
78902;DHT22;70441;44.758;37.686;2023-09-19T00:33:00;19.00;46.97
78902;DHT22;70441;44.758;37.686;2023-09-19T00:34:02;18.93;47.05
78902;DHT22;70441;44.758;37.686;2023-09-19T00:35:05;18.89;46.60
78902;DHT22;70441;44.758;37.686;2023-09-19T00:36:07;18.89;47.04
78902;DHT22;70441;44.758;37.686;2023-09-19T00:37:08;18.86;47.07
78902;DHT22;70441;44.758;37.686;2023-09-19T00:38:12;18.84;47.16
78902;DHT22;70441;44.758;37.686;2023-09-19T00:39:19;18.82;47.35
78902;DHT22;70441;44.758;37.686;2023-09-19T00:40:21;18.79;46.99
78902;DHT22;70441;44.758;37.686;2023-09-19T00:41:23;18.84;46.77
78902;DHT22;70441;44.758;37.686;2023-09-19T00:42:26;18.88;46.66
78902;DHT22;70441;44.758;37.686;2023-09-19T00:43:27;18.91;46.93
78902;DHT22;70441;44.758;37.686;2023-09-19T00:44:30;18.89;46.96
78902;DHT22;70441;44.758;37.686;2023-09-19T00:45:31;18.89;47.04
78902;DHT22;70441;44.758;37.686;2023-09-19T00:46:33;18.86;47.00
78902;DHT22;70441;44.758;37.686;2023-09-19T00:47:35;18.89;46.99
78902;DHT22;70441;44.758;37.686;2023-09-19T00:48:40;18.88;47.07
78902;DHT22;70441;44.758;37.686;2023-09-19T00:49:45;18.89;47.11
78902;DHT22;70441;44.758;37.686;2023-09-19T00:50:53;18.89;47.04
78902;DHT22;70441;44.758;37.686;2023-09-19T00:51:55;18.85;47.12
78902;DHT22;70441;44.758;37.686;2023-09-19T00:52:58;18.82;47.02
78902;DHT22;70441;44.758;37.686;2023-09-19T00:54:00;18.84;46.92
78902;DHT22;70441;44.758;37.686;2023-09-19T00:55:03;18.86;46.90
78902;DHT22;70441;44.758;37.686;2023-09-19T00:56:06;18.86;46.92
78902;DHT22;70441;44.758;37.686;2023-09-19T00:57:08;18.86;46.85
78902;DHT22;70441;44.758;37.686;2023-09-19T00:58:10;18.85;47.14
78902;DHT22;70441;44.758;37.686;2023-09-19T00:59:11;18.84;47.15
78902;DHT22;70441;44.758;37.686;2023-09-19T01:00:13;18.84;47.10
78902;DHT22;70441;44.758;37.686;2023-09-19T01:01:21;18.78;47.20
78902;DHT22;70441;44.758;37.686;2023-09-19T01:02:22;18.76;47.35
78902;DHT22;70441;44.758;37.686;2023-09-19T01:03:24;18.73;47.49
78902;DHT22;70441;44.758;37.686;2023-09-19T01:04:25;18.72;47.31
78902;DHT22;70441;44.758;37.686;2023-09-19T01:05:29;18.71;47.40
78902;DHT22;70441;44.758;37.686;2023-09-19T01:06:31;18.72;47.17
78902;DHT22;70441;44.758;37.686;2023-09-19T01:07:33;18.73;47.27
78902;DHT22;70441;44.758;37.686;2023-09-19T01:08:37;18.73;47.16
78902;DHT22;70441;44.758;37.686;2023-09-19T01:09:38;18.73;47.24
78902;DHT22;70441;44.758;37.686;2023-09-19T01:10:46;18.76;47.21
78902;DHT22;70441;44.758;37.686;2023-09-19T01:11:58;18.71;47.54
78902;DHT22;70441;44.758;37.686;2023-09-19T01:13:42;18.71;47.55
78902;DHT22;70441;44.758;37.686;2023-09-19T01:14:55;18.68;47.61
78902;DHT22;70441;44.758;37.686;2023-09-19T01:16:45;18.64;47.50
78902;DHT22;70441;44.758;37.686;2023-09-19T01:21:11;18.67;47.61
78902;DHT22;70441;44.758;37.686;2023-09-19T01:22:49;18.67;47.59
78902;DHT22;70441;44.758;37.686;2023-09-19T01:26:05;18.58;47.12
78902;DHT22;70441;44.758;37.686;2023-09-19T01:28:53;18.67;46.92
78902;DHT22;70441;44.758;37.686;2023-09-19T01:30:10;18.68;47.37
78902;DHT22;70441;44.758;37.686;2023-09-19T01:31:13;18.69;47.20
78902;DHT22;70441;44.758;37.686;2023-09-19T01:32:22;18.71;47.00
78902;DHT22;70441;44.758;37.686;2023-09-19T01:33:26;18.75;47.03
78902;DHT22;70441;44.758;37.686;2023-09-19T01:34:27;18.72;47.37
78902;DHT22;70441;44.758;37.686;2023-09-19T01:35:44;18.65;47.80
78902;DHT22;70441;44.758;37.686;2023-09-19T01:36:46;18.67;47.71
78902;DHT22;70441;44.758;37.686;2023-09-19T01:37:47;18.68;47.37
78902;DHT22;70441;44.758;37.686;2023-09-19T01:38:50;18.72;47.45
78902;DHT22;70441;44.758;37.686;2023-09-19T01:40:04;18.71;47.32
78902;DHT22;70441;44.758;37.686;2023-09-19T01:41:22;18.69;47.32
78902;DHT22;70441;44.758;37.686;2023-09-19T01:42:50;18.65;47.39
78902;DHT22;70441;44.758;37.686;2023-09-19T01:43:58;18.64;47.37
78902;DHT22;70441;44.758;37.686;2023-09-19T01:46:33;18.57;47.87
78902;DHT22;70441;44.758;37.686;2023-09-19T01:47:46;18.52;47.95
78902;DHT22;70441;44.758;37.686;2023-09-19T01:49:58;18.41;48.29
78902;DHT22;70441;44.758;37.686;2023-09-19T01:51:08;18.34;48.35
78902;DHT22;70441;44.758;37.686;2023-09-19T01:52:13;18.25;48.68
78902;DHT22;70441;44.758;37.686;2023-09-19T01:54:32;18.20;48.60
78902;DHT22;70441;44.758;37.686;2023-09-19T01:55:38;18.23;48.51
78902;DHT22;70441;44.758;37.686;2023-09-19T01:57:20;18.29;48.29
78902;DHT22;70441;44.758;37.686;2023-09-19T01:59:35;18.22;48.64
78902;DHT22;70441;44.758;37.686;2023-09-19T02:00:40;18.20;48.36
78902;DHT22;70441;44.758;37.686;2023-09-19T02:01:45;18.26;48.30
78902;DHT22;70441;44.758;37.686;2023-09-19T02:02:47;18.33;48.24
78902;DHT22;70441;44.758;37.686;2023-09-19T02:03:50;18.38;48.17
78902;DHT22;70441;44.758;37.686;2023-09-19T02:04:51;18.38;48.15
78902;DHT22;70441;44.758;37.686;2023-09-19T02:05:53;18.40;48.06
78902;DHT22;70441;44.758;37.686;2023-09-19T02:06:55;18.41;48.35
78902;DHT22;70441;44.758;37.686;2023-09-19T02:07:57;18.38;48.28
78902;DHT22;70441;44.758;37.686;2023-09-19T02:09:00;18.38;48.09
78902;DHT22;70441;44.758;37.686;2023-09-19T02:10:01;18.40;48.18
78902;DHT22;70441;44.758;37.686;2023-09-19T02:11:06;18.38;48.09
78902;DHT22;70441;44.758;37.686;2023-09-19T02:12:09;18.37;48.35
78902;DHT22;70441;44.758;37.686;2023-09-19T02:13:10;18.33;48.31
78902;DHT22;70441;44.758;37.686;2023-09-19T02:14:12;18.30;48.06
78902;DHT22;70441;44.758;37.686;2023-09-19T02:15:14;18.32;47.95
78902;DHT22;70441;44.758;37.686;2023-09-19T02:16:16;18.29;48.16
78902;DHT22;70441;44.758;37.686;2023-09-19T02:17:20;18.26;48.22
78902;DHT22;70441;44.758;37.686;2023-09-19T02:18:22;18.30;48.29
78902;DHT22;70441;44.758;37.686;2023-09-19T02:19:23;18.27;48.38
78902;DHT22;70441;44.758;37.686;2023-09-19T02:20:25;18.26;48.26
78902;DHT22;70441;44.758;37.686;2023-09-19T02:21:27;18.29;48.26
78902;DHT22;70441;44.758;37.686;2023-09-19T02:22:30;18.27;48.28
78902;DHT22;70441;44.758;37.686;2023-09-19T02:23:33;18.27;48.23
78902;DHT22;70441;44.758;37.686;2023-09-19T02:24:34;18.26;48.29
78902;DHT22;70441;44.758;37.686;2023-09-19T02:25:36;18.25;48.51
78902;DHT22;70441;44.758;37.686;2023-09-19T02:26:39;18.22;48.22
78902;DHT22;70441;44.758;37.686;2023-09-19T02:27:41;18.23;48.32
78902;DHT22;70441;44.758;37.686;2023-09-19T02:28:43;18.20;48.24
78902;DHT22;70441;44.758;37.686;2023-09-19T02:29:44;18.17;48.40
78902;DHT22;70441;44.758;37.686;2023-09-19T02:30:49;18.19;48.35
78902;DHT22;70441;44.758;37.686;2023-09-19T02:31:51;18.23;47.88
78902;DHT22;70441;44.758;37.686;2023-09-19T02:32:52;18.27;48.04
78902;DHT22;70441;44.758;37.686;2023-09-19T02:33:54;18.29;47.89
78902;DHT22;70441;44.758;37.686;2023-09-19T02:34:57;18.27;48.15
78902;DHT22;70441;44.758;37.686;2023-09-19T02:35:59;18.30;47.99
78902;DHT22;70441;44.758;37.686;2023-09-19T02:37:05;18.29;47.80
78902;DHT22;70441;44.758;37.686;2023-09-19T02:38:07;18.29;47.59
78902;DHT22;70441;44.758;37.686;2023-09-19T02:39:08;18.33;47.65
78902;DHT22;70441;44.758;37.686;2023-09-19T02:40:12;18.32;47.80
78902;DHT22;70441;44.758;37.686;2023-09-19T02:41:22;18.37;47.72
78902;DHT22;70441;44.758;37.686;2023-09-19T02:42:23;18.40;47.57
78902;DHT22;70441;44.758;37.686;2023-09-19T02:43:25;18.40;47.56
78902;DHT22;70441;44.758;37.686;2023-09-19T02:44:27;18.41;47.38
78902;DHT22;70441;44.758;37.686;2023-09-19T02:45:28;18.43;47.46
78902;DHT22;70441;44.758;37.686;2023-09-19T02:46:31;18.38;47.53
78902;DHT22;70441;44.758;37.686;2023-09-19T02:47:34;18.37;47.54
78902;DHT22;70441;44.758;37.686;2023-09-19T02:48:36;18.37;47.42
78902;DHT22;70441;44.758;37.686;2023-09-19T02:49:37;18.40;47.43
78902;DHT22;70441;44.758;37.686;2023-09-19T02:50:39;18.41;47.43
78902;DHT22;70441;44.758;37.686;2023-09-19T02:51:41;18.41;47.59
78902;DHT22;70441;44.758;37.686;2023-09-19T02:52:43;18.40;47.57
78902;DHT22;70441;44.758;37.686;2023-09-19T02:53:45;18.38;47.65
78902;DHT22;70441;44.758;37.686;2023-09-19T02:54:48;18.37;47.71
78902;DHT22;70441;44.758;37.686;2023-09-19T02:55:50;18.36;47.97
78902;DHT22;70441;44.758;37.686;2023-09-19T02:56:55;18.32;47.85
78902;DHT22;70441;44.758;37.686;2023-09-19T02:57:57;18.33;47.63
78902;DHT22;70441;44.758;37.686;2023-09-19T02:58:59;18.30;47.92
78902;DHT22;70441;44.758;37.686;2023-09-19T03:00:03;18.26;47.83
78902;DHT22;70441;44.758;37.686;2023-09-19T03:01:12;18.25;48.00
78902;DHT22;70441;44.758;37.686;2023-09-19T03:02:13;18.19;48.13
78902;DHT22;70441;44.758;37.686;2023-09-19T03:03:15;18.17;48.09
78902;DHT22;70441;44.758;37.686;2023-09-19T03:04:20;18.19;48.32
78902;DHT22;70441;44.758;37.686;2023-09-19T03:05:23;18.20;48.00
78902;DHT22;70441;44.758;37.686;2023-09-19T03:06:27;18.20;48.08
78902;DHT22;70441;44.758;37.686;2023-09-19T03:07:29;18.20;47.94
78902;DHT22;70441;44.758;37.686;2023-09-19T03:08:31;18.17;48.18
78902;DHT22;70441;44.758;37.686;2023-09-19T03:09:32;18.20;47.99
78902;DHT22;70441;44.758;37.686;2023-09-19T03:10:34;18.17;48.14
78902;DHT22;70441;44.758;37.686;2023-09-19T03:11:39;18.17;48.04
78902;DHT22;70441;44.758;37.686;2023-09-19T03:12:41;18.17;47.94
78902;DHT22;70441;44.758;37.686;2023-09-19T03:13:43;18.17;47.93
78902;DHT22;70441;44.758;37.686;2023-09-19T03:14:48;18.20;48.04
78902;DHT22;70441;44.758;37.686;2023-09-19T03:15:49;18.23;47.94
78902;DHT22;70441;44.758;37.686;2023-09-19T03:16:55;18.22;48.16
78902;DHT22;70441;44.758;37.686;2023-09-19T03:17:57;18.19;48.16
78902;DHT22;70441;44.758;37.686;2023-09-19T03:19:01;18.19;48.13
78902;DHT22;70441;44.758;37.686;2023-09-19T03:20:05;18.20;48.36
78902;DHT22;70441;44.758;37.686;2023-09-19T03:21:10;18.19;48.10
78902;DHT22;70441;44.758;37.686;2023-09-19T03:22:12;18.19;48.28
78902;DHT22;70441;44.758;37.686;2023-09-19T03:23:13;18.17;48.08
78902;DHT22;70441;44.758;37.686;2023-09-19T03:24:15;18.20;48.06
78902;DHT22;70441;44.758;37.686;2023-09-19T03:25:17;18.19;48.17
78902;DHT22;70441;44.758;37.686;2023-09-19T03:26:22;18.20;47.89
78902;DHT22;70441;44.758;37.686;2023-09-19T03:27:23;18.29;47.51
78902;DHT22;70441;44.758;37.686;2023-09-19T03:28:26;18.34;47.35
78902;DHT22;70441;44.758;37.686;2023-09-19T03:29:32;18.40;47.15
78902;DHT22;70441;44.758;37.686;2023-09-19T03:30:34;18.43;47.20
78902;DHT22;70441;44.758;37.686;2023-09-19T03:31:37;18.48;47.10
78902;DHT22;70441;44.758;37.686;2023-09-19T03:32:46;18.52;47.01
78902;DHT22;70441;44.758;37.686;2023-09-19T03:33:48;18.60;46.56
78902;DHT22;70441;44.758;37.686;2023-09-19T03:34:49;18.67;46.69
78902;DHT22;70441;44.758;37.686;2023-09-19T03:35:55;18.72;46.68
78902;DHT22;70441;44.758;37.686;2023-09-19T03:36:59;18.78;46.67
78902;DHT22;70441;44.758;37.686;2023-09-19T03:38:01;18.78;46.42
78902;DHT22;70441;44.758;37.686;2023-09-19T03:39:03;18.88;46.20
78902;DHT22;70441;44.758;37.686;2023-09-19T03:40:07;18.96;46.17
78902;DHT22;70441;44.758;37.686;2023-09-19T03:41:09;19.03;46.20
78902;DHT22;70441;44.758;37.686;2023-09-19T03:42:12;19.07;45.76
78902;DHT22;70441;44.758;37.686;2023-09-19T03:43:13;19.16;45.46
78902;DHT22;70441;44.758;37.686;2023-09-19T03:44:15;19.26;45.39
78902;DHT22;70441;44.758;37.686;2023-09-19T03:45:16;19.37;44.96
78902;DHT22;70441;44.758;37.686;2023-09-19T03:46:25;19.47;44.76
78902;DHT22;70441;44.758;37.686;2023-09-19T03:47:26;19.59;44.46
78902;DHT22;70441;44.758;37.686;2023-09-19T03:48:29;19.66;44.40
78902;DHT22;70441;44.758;37.686;2023-09-19T03:49:31;19.76;43.83
78902;DHT22;70441;44.758;37.686;2023-09-19T03:50:34;19.87;43.39
78902;DHT22;70441;44.758;37.686;2023-09-19T03:51:35;19.97;43.60
78902;DHT22;70441;44.758;37.686;2023-09-19T03:52:39;20.04;43.33
78902;DHT22;70441;44.758;37.686;2023-09-19T03:53:41;20.16;43.10
78902;DHT22;70441;44.758;37.686;2023-09-19T03:54:43;20.22;43.01
78902;DHT22;70441;44.758;37.686;2023-09-19T03:55:45;20.34;42.66
78902;DHT22;70441;44.758;37.686;2023-09-19T03:56:48;20.41;42.38
78902;DHT22;70441;44.758;37.686;2023-09-19T03:57:50;20.48;42.03
78902;DHT22;70441;44.758;37.686;2023-09-19T03:58:52;20.56;41.96
78902;DHT22;70441;44.758;37.686;2023-09-19T03:59:54;20.65;41.81
78902;DHT22;70441;44.758;37.686;2023-09-19T04:00:58;20.70;42.14
78902;DHT22;70441;44.758;37.686;2023-09-19T04:02:02;20.77;41.76
78902;DHT22;70441;44.758;37.686;2023-09-19T04:03:05;20.84;41.53
78902;DHT22;70441;44.758;37.686;2023-09-19T04:04:07;20.88;41.45
78902;DHT22;70441;44.758;37.686;2023-09-19T04:05:10;20.94;41.59
78902;DHT22;70441;44.758;37.686;2023-09-19T04:06:16;20.94;41.52
78902;DHT22;70441;44.758;37.686;2023-09-19T04:07:18;21.04;41.22
78902;DHT22;70441;44.758;37.686;2023-09-19T04:08:23;21.07;40.97
78902;DHT22;70441;44.758;37.686;2023-09-19T04:09:24;21.12;40.99
78902;DHT22;70441;44.758;37.686;2023-09-19T04:10:27;21.18;40.55
78902;DHT22;70441;44.758;37.686;2023-09-19T04:11:30;21.25;40.59
78902;DHT22;70441;44.758;37.686;2023-09-19T04:12:32;21.31;40.36
78902;DHT22;70441;44.758;37.686;2023-09-19T04:13:34;21.39;40.77
78902;DHT22;70441;44.758;37.686;2023-09-19T04:14:35;21.46;39.91
78902;DHT22;70441;44.758;37.686;2023-09-19T04:15:37;21.55;39.87
78902;DHT22;70441;44.758;37.686;2023-09-19T04:16:38;21.57;39.61
78902;DHT22;70441;44.758;37.686;2023-09-19T04:17:40;21.62;39.46
78902;DHT22;70441;44.758;37.686;2023-09-19T04:18:42;21.70;39.08
78902;DHT22;70441;44.758;37.686;2023-09-19T04:19:44;21.81;39.37
78902;DHT22;70441;44.758;37.686;2023-09-19T04:20:50;21.88;38.87
78902;DHT22;70441;44.758;37.686;2023-09-19T04:21:52;21.98;38.78
78902;DHT22;70441;44.758;37.686;2023-09-19T04:22:54;22.02;38.54
78902;DHT22;70441;44.758;37.686;2023-09-19T04:23:56;22.06;38.35
78902;DHT22;70441;44.758;37.686;2023-09-19T04:24:58;22.08;38.28
78902;DHT22;70441;44.758;37.686;2023-09-19T04:25:59;22.18;38.56
78902;DHT22;70441;44.758;37.686;2023-09-19T04:27:00;22.26;38.33
78902;DHT22;70441;44.758;37.686;2023-09-19T04:28:02;22.35;37.73
78902;DHT22;70441;44.758;37.686;2023-09-19T04:29:05;22.40;37.51
78902;DHT22;70441;44.758;37.686;2023-09-19T04:30:08;22.47;37.95
78902;DHT22;70441;44.758;37.686;2023-09-19T04:31:13;22.56;37.42
78902;DHT22;70441;44.758;37.686;2023-09-19T04:32:15;22.57;36.73
78902;DHT22;70441;44.758;37.686;2023-09-19T04:33:18;22.63;37.06
78902;DHT22;70441;44.758;37.686;2023-09-19T04:34:19;22.74;36.60
78902;DHT22;70441;44.758;37.686;2023-09-19T04:35:21;22.80;36.61
78902;DHT22;70441;44.758;37.686;2023-09-19T04:36:22;22.81;36.18
78902;DHT22;70441;44.758;37.686;2023-09-19T04:37:24;22.84;36.18
78902;DHT22;70441;44.758;37.686;2023-09-19T04:38:25;22.88;36.30
78902;DHT22;70441;44.758;37.686;2023-09-19T04:39:28;22.98;35.64
78902;DHT22;70441;44.758;37.686;2023-09-19T04:40:30;23.08;35.63
78902;DHT22;70441;44.758;37.686;2023-09-19T04:41:31;23.16;35.69
78902;DHT22;70441;44.758;37.686;2023-09-19T04:42:33;23.24;36.13
78902;DHT22;70441;44.758;37.686;2023-09-19T04:43:36;23.32;35.05
78902;DHT22;70441;44.758;37.686;2023-09-19T04:44:37;23.34;34.97
78902;DHT22;70441;44.758;37.686;2023-09-19T04:45:39;23.36;34.71
78902;DHT22;70441;44.758;37.686;2023-09-19T04:46:41;23.37;34.51
78902;DHT22;70441;44.758;37.686;2023-09-19T04:47:43;23.36;34.98
78902;DHT22;70441;44.758;37.686;2023-09-19T04:48:45;23.50;35.02
78902;DHT22;70441;44.758;37.686;2023-09-19T04:49:46;23.57;34.82
78902;DHT22;70441;44.758;37.686;2023-09-19T04:50:48;23.64;33.70
78902;DHT22;70441;44.758;37.686;2023-09-19T04:51:50;23.61;33.92
78902;DHT22;70441;44.758;37.686;2023-09-19T04:52:52;23.70;33.96
78902;DHT22;70441;44.758;37.686;2023-09-19T04:53:55;23.74;33.95
78902;DHT22;70441;44.758;37.686;2023-09-19T04:54:57;23.81;33.54
78902;DHT22;70441;44.758;37.686;2023-09-19T04:55:58;23.95;33.83
78902;DHT22;70441;44.758;37.686;2023-09-19T04:57:00;24.06;32.45
78902;DHT22;70441;44.758;37.686;2023-09-19T04:58:02;24.05;32.10
78902;DHT22;70441;44.758;37.686;2023-09-19T04:59:05;24.16;32.71
78902;DHT22;70441;44.758;37.686;2023-09-19T05:00:07;24.24;32.61
78902;DHT22;70441;44.758;37.686;2023-09-19T05:01:13;24.34;32.58
78902;DHT22;70441;44.758;37.686;2023-09-19T05:02:16;24.47;31.91
78902;DHT22;70441;44.758;37.686;2023-09-19T05:03:18;24.51;31.77
78902;DHT22;70441;44.758;37.686;2023-09-19T05:04:21;24.48;32.19
78902;DHT22;70441;44.758;37.686;2023-09-19T05:05:23;24.47;31.92
78902;DHT22;70441;44.758;37.686;2023-09-19T05:06:27;24.50;32.05
78902;DHT22;70441;44.758;37.686;2023-09-19T05:07:29;24.60;31.64
78902;DHT22;70441;44.758;37.686;2023-09-19T05:08:30;24.65;31.93
78902;DHT22;70441;44.758;37.686;2023-09-19T05:09:32;24.68;32.39
78902;DHT22;70441;44.758;37.686;2023-09-19T05:10:35;24.72;32.78
78902;DHT22;70441;44.758;37.686;2023-09-19T05:11:39;24.72;32.73
78902;DHT22;70441;44.758;37.686;2023-09-19T05:12:41;24.74;33.06
78902;DHT22;70441;44.758;37.686;2023-09-19T05:13:42;24.67;33.11
78902;DHT22;70441;44.758;37.686;2023-09-19T05:14:44;24.58;32.94
78902;DHT22;70441;44.758;37.686;2023-09-19T05:15:46;24.57;33.44
78902;DHT22;70441;44.758;37.686;2023-09-19T05:16:47;24.54;33.10
78902;DHT22;70441;44.758;37.686;2023-09-19T05:17:50;24.44;33.21
78902;DHT22;70441;44.758;37.686;2023-09-19T05:18:52;24.48;33.33
78902;DHT22;70441;44.758;37.686;2023-09-19T05:19:54;24.47;33.33
78902;DHT22;70441;44.758;37.686;2023-09-19T05:20:56;24.47;32.90
78902;DHT22;70441;44.758;37.686;2023-09-19T05:21:57;24.51;33.27
78902;DHT22;70441;44.758;37.686;2023-09-19T05:23:04;24.53;32.79
78902;DHT22;70441;44.758;37.686;2023-09-19T05:24:09;24.48;33.38
78902;DHT22;70441;44.758;37.686;2023-09-19T05:25:12;24.46;33.05
78902;DHT22;70441;44.758;37.686;2023-09-19T05:26:18;24.41;33.54
78902;DHT22;70441;44.758;37.686;2023-09-19T05:27:20;24.36;33.23
78902;DHT22;70441;44.758;37.686;2023-09-19T05:28:22;24.34;33.27
78902;DHT22;70441;44.758;37.686;2023-09-19T05:29:24;24.29;33.64
78902;DHT22;70441;44.758;37.686;2023-09-19T05:30:26;24.29;33.69
78902;DHT22;70441;44.758;37.686;2023-09-19T05:31:31;24.30;33.86
78902;DHT22;70441;44.758;37.686;2023-09-19T05:32:33;24.39;33.48
78902;DHT22;70441;44.758;37.686;2023-09-19T05:33:34;24.39;33.17
78902;DHT22;70441;44.758;37.686;2023-09-19T05:34:36;24.30;33.61
78902;DHT22;70441;44.758;37.686;2023-09-19T05:35:38;24.31;33.67
78902;DHT22;70441;44.758;37.686;2023-09-19T05:36:41;24.33;33.92
78902;DHT22;70441;44.758;37.686;2023-09-19T05:37:43;24.37;33.69
78902;DHT22;70441;44.758;37.686;2023-09-19T05:38:45;24.36;33.80
78902;DHT22;70441;44.758;37.686;2023-09-19T05:39:50;24.36;33.31
78902;DHT22;70441;44.758;37.686;2023-09-19T05:40:51;24.44;33.53
78902;DHT22;70441;44.758;37.686;2023-09-19T05:41:53;24.47;33.11
78902;DHT22;70441;44.758;37.686;2023-09-19T05:42:54;24.44;32.19
78902;DHT22;70441;44.758;37.686;2023-09-19T05:43:56;24.36;33.12
78902;DHT22;70441;44.758;37.686;2023-09-19T05:44:57;24.37;33.35
78902;DHT22;70441;44.758;37.686;2023-09-19T05:46:00;24.44;33.08
78902;DHT22;70441;44.758;37.686;2023-09-19T05:47:02;24.48;33.32
78902;DHT22;70441;44.758;37.686;2023-09-19T05:48:08;24.54;33.07
78902;DHT22;70441;44.758;37.686;2023-09-19T05:49:10;24.51;32.80
78902;DHT22;70441;44.758;37.686;2023-09-19T05:50:12;24.34;33.50
78902;DHT22;70441;44.758;37.686;2023-09-19T05:51:14;24.33;33.80
78902;DHT22;70441;44.758;37.686;2023-09-19T05:52:15;24.39;33.41
78902;DHT22;70441;44.758;37.686;2023-09-19T05:53:18;24.34;33.34
78902;DHT22;70441;44.758;37.686;2023-09-19T05:54:20;24.31;33.28
78902;DHT22;70441;44.758;37.686;2023-09-19T05:55:22;24.33;33.85
78902;DHT22;70441;44.758;37.686;2023-09-19T05:56:27;24.44;33.54
78902;DHT22;70441;44.758;37.686;2023-09-19T05:57:29;24.41;33.82
78902;DHT22;70441;44.758;37.686;2023-09-19T05:58:31;24.44;33.88
78902;DHT22;70441;44.758;37.686;2023-09-19T05:59:33;24.43;33.69
78902;DHT22;70441;44.758;37.686;2023-09-19T06:00:35;24.50;33.88
78902;DHT22;70441;44.758;37.686;2023-09-19T06:01:37;24.60;33.28
78902;DHT22;70441;44.758;37.686;2023-09-19T06:02:39;24.63;32.91
78902;DHT22;70441;44.758;37.686;2023-09-19T06:03:41;24.57;33.13
78902;DHT22;70441;44.758;37.686;2023-09-19T06:04:43;24.57;33.35
78902;DHT22;70441;44.758;37.686;2023-09-19T06:05:45;24.55;32.20
78902;DHT22;70441;44.758;37.686;2023-09-19T06:06:47;24.50;32.89
78902;DHT22;70441;44.758;37.686;2023-09-19T06:07:50;24.55;32.99
78902;DHT22;70441;44.758;37.686;2023-09-19T06:08:53;24.60;33.08
78902;DHT22;70441;44.758;37.686;2023-09-19T06:09:54;24.64;33.25
78902;DHT22;70441;44.758;37.686;2023-09-19T06:10:57;24.60;32.47
78902;DHT22;70441;44.758;37.686;2023-09-19T06:11:58;24.60;31.97
78902;DHT22;70441;44.758;37.686;2023-09-19T06:13:04;24.58;31.96
78902;DHT22;70441;44.758;37.686;2023-09-19T06:14:07;24.54;32.93
78902;DHT22;70441;44.758;37.686;2023-09-19T06:15:11;24.53;32.66
78902;DHT22;70441;44.758;37.686;2023-09-19T06:16:24;24.51;32.58
78902;DHT22;70441;44.758;37.686;2023-09-19T06:17:25;24.43;33.39
78902;DHT22;70441;44.758;37.686;2023-09-19T06:18:29;24.46;32.87
78902;DHT22;70441;44.758;37.686;2023-09-19T06:19:36;24.47;32.53
78902;DHT22;70441;44.758;37.686;2023-09-19T06:20:38;24.51;31.97
78902;DHT22;70441;44.758;37.686;2023-09-19T06:21:45;24.55;33.10
78902;DHT22;70441;44.758;37.686;2023-09-19T06:22:47;24.58;31.56
78902;DHT22;70441;44.758;37.686;2023-09-19T06:23:49;24.54;30.91
78902;DHT22;70441;44.758;37.686;2023-09-19T06:24:52;24.58;32.17
78902;DHT22;70441;44.758;37.686;2023-09-19T06:26:01;24.60;32.18
78902;DHT22;70441;44.758;37.686;2023-09-19T06:27:03;24.71;31.86
78902;DHT22;70441;44.758;37.686;2023-09-19T06:28:06;24.75;31.35
78902;DHT22;70441;44.758;37.686;2023-09-19T06:29:09;24.74;31.66
78902;DHT22;70441;44.758;37.686;2023-09-19T06:30:11;24.76;31.85
78902;DHT22;70441;44.758;37.686;2023-09-19T06:31:14;24.78;31.85
78902;DHT22;70441;44.758;37.686;2023-09-19T06:32:16;24.88;31.26
78902;DHT22;70441;44.758;37.686;2023-09-19T06:33:17;24.93;31.58
78902;DHT22;70441;44.758;37.686;2023-09-19T06:34:21;25.00;30.04
78902;DHT22;70441;44.758;37.686;2023-09-19T06:35:23;24.98;31.42
78902;DHT22;70441;44.758;37.686;2023-09-19T06:36:27;25.00;31.62
78902;DHT22;70441;44.758;37.686;2023-09-19T06:37:29;25.10;31.54
78902;DHT22;70441;44.758;37.686;2023-09-19T06:38:31;25.13;30.73
78902;DHT22;70441;44.758;37.686;2023-09-19T06:39:35;25.05;31.17
78902;DHT22;70441;44.758;37.686;2023-09-19T06:40:37;25.00;31.01
78902;DHT22;70441;44.758;37.686;2023-09-19T06:41:38;24.96;30.96
78902;DHT22;70441;44.758;37.686;2023-09-19T06:42:46;24.95;31.17
78902;DHT22;70441;44.758;37.686;2023-09-19T06:43:50;24.98;31.26
78902;DHT22;70441;44.758;37.686;2023-09-19T06:44:56;24.96;30.64
78902;DHT22;70441;44.758;37.686;2023-09-19T06:46:04;24.96;30.07
78902;DHT22;70441;44.758;37.686;2023-09-19T06:47:16;25.00;30.68